Strona główna
METAR-TAF:

METAR-TAF

Lotnisko :

Platforma wiertnicza

D15-fa-1, Holandia

Szerokość geograficzna: 54-19-32N, Długość geograficzna: 2-56-09E, wysokość: 36 m

Aktualna obserwacja pogody

Raport powstał 26 minut temu, godzina 14:25 UTC
Wiatr 20 kt od północ
Temperatura 10°C
Wilgotność 76%
Ciśnienie 998 hPa
Widzialność 10 km lub więcej

METAR: EHDV 041425Z AUTO 35020KT 9999 FEW015/// SCT030/// BKN035/// 10/06 Q0998 REDZ

czas: 16:51 (14:51 UTC)


TAF: brakujący

Obserwacja i prognoza pogody dla ponad 4000 lotnisk (raport METAR i TAF).

Dostępne stacje oznaczono żółtymi i czerwonymi punktami na mapie.

Najedź kursorem aby zobaczyć nazwę stacji.

Kliknij aby zobaczyć obserwacje i prognozy pogody.

Aby zmienić mapę: kliknij na zielony przycisk z czarnym krzyżykiem, aby powiększyć; na zielony przycisk z myślnikiem, aby pomniejszyć; na zielone strzałki, aby przejść do map sąsiednich.


METAR-TAF: